sensor_id;sensor_type;location;lat;lon;timestamp;temperature;humidity
5705;DHT22;2877;48.238;11.160;2024-03-23T00:55:51;8.90;99.90
5705;DHT22;2877;48.238;11.160;2024-03-23T00:58:17;8.90;99.90
5705;DHT22;2877;48.238;11.160;2024-03-23T01:00:42;8.90;99.90
5705;DHT22;2877;48.238;11.160;2024-03-23T01:03:08;8.90;99.90
5705;DHT22;2877;48.238;11.160;2024-03-23T01:05:33;8.90;99.90
5705;DHT22;2877;48.238;11.160;2024-03-23T01:07:59;8.90;99.90
5705;DHT22;2877;48.238;11.160;2024-03-23T01:10:24;9.00;99.90
5705;DHT22;2877;48.238;11.160;2024-03-23T01:12:50;9.10;99.90
5705;DHT22;2877;48.238;11.160;2024-03-23T01:15:15;9.10;99.90
5705;DHT22;2877;48.238;11.160;2024-03-23T01:17:41;9.10;99.90
5705;DHT22;2877;48.238;11.160;2024-03-23T01:20:07;9.10;99.90
5705;DHT22;2877;48.238;11.160;2024-03-23T01:22:32;9.10;99.90
5705;DHT22;2877;48.238;11.160;2024-03-23T01:24:58;9.00;99.90
5705;DHT22;2877;48.238;11.160;2024-03-23T01:27:24;9.00;99.90
5705;DHT22;2877;48.238;11.160;2024-03-23T01:29:49;9.00;99.90
5705;DHT22;2877;48.238;11.160;2024-03-23T01:32:16;8.90;99.90
5705;DHT22;2877;48.238;11.160;2024-03-23T01:34:41;8.90;99.90
5705;DHT22;2877;48.238;11.160;2024-03-23T01:37:07;8.90;99.90
5705;DHT22;2877;48.238;11.160;2024-03-23T01:39:32;8.80;99.90
5705;DHT22;2877;48.238;11.160;2024-03-23T01:41:58;8.70;99.90
5705;DHT22;2877;48.238;11.160;2024-03-23T01:44:23;8.80;99.90
5705;DHT22;2877;48.238;11.160;2024-03-23T01:46:49;8.80;99.90
5705;DHT22;2877;48.238;11.160;2024-03-23T01:49:15;8.80;99.90
5705;DHT22;2877;48.238;11.160;2024-03-23T01:51:41;8.90;99.90
5705;DHT22;2877;48.238;11.160;2024-03-23T01:54:08;8.90;99.90
5705;DHT22;2877;48.238;11.160;2024-03-23T01:56:34;8.80;99.90
5705;DHT22;2877;48.238;11.160;2024-03-23T01:59:03;8.90;99.90
5705;DHT22;2877;48.238;11.160;2024-03-23T02:01:29;9.00;99.90
5705;DHT22;2877;48.238;11.160;2024-03-23T02:03:54;9.00;99.90
5705;DHT22;2877;48.238;11.160;2024-03-23T02:06:20;9.00;99.90
5705;DHT22;2877;48.238;11.160;2024-03-23T02:08:45;9.00;99.90
5705;DHT22;2877;48.238;11.160;2024-03-23T02:11:11;8.90;99.90
5705;DHT22;2877;48.238;11.160;2024-03-23T02:13:37;8.80;99.90
5705;DHT22;2877;48.238;11.160;2024-03-23T02:16:02;8.80;99.90
5705;DHT22;2877;48.238;11.160;2024-03-23T02:18:28;8.70;99.90
5705;DHT22;2877;48.238;11.160;2024-03-23T02:20:53;8.60;99.90
5705;DHT22;2877;48.238;11.160;2024-03-23T02:23:19;8.50;99.90
5705;DHT22;2877;48.238;11.160;2024-03-23T02:25:45;8.40;99.90
5705;DHT22;2877;48.238;11.160;2024-03-23T02:28:11;8.30;99.90
5705;DHT22;2877;48.238;11.160;2024-03-23T02:30:37;8.30;99.90
5705;DHT22;2877;48.238;11.160;2024-03-23T02:33:03;8.30;99.90
5705;DHT22;2877;48.238;11.160;2024-03-23T02:35:29;8.20;99.90
5705;DHT22;2877;48.238;11.160;2024-03-23T02:37:55;8.20;99.90
5705;DHT22;2877;48.238;11.160;2024-03-23T02:40:23;8.20;99.90
5705;DHT22;2877;48.238;11.160;2024-03-23T02:42:48;8.20;99.90
5705;DHT22;2877;48.238;11.160;2024-03-23T02:45:14;8.20;99.90
5705;DHT22;2877;48.238;11.160;2024-03-23T02:47:40;8.30;99.90
5705;DHT22;2877;48.238;11.160;2024-03-23T02:50:05;8.30;99.90
5705;DHT22;2877;48.238;11.160;2024-03-23T02:52:31;8.30;99.90
5705;DHT22;2877;48.238;11.160;2024-03-23T02:54:57;8.20;99.90
5705;DHT22;2877;48.238;11.160;2024-03-23T02:57:23;8.10;99.90
5705;DHT22;2877;48.238;11.160;2024-03-23T02:59:48;8.10;99.90
5705;DHT22;2877;48.238;11.160;2024-03-23T03:02:15;8.10;99.90
5705;DHT22;2877;48.238;11.160;2024-03-23T03:04:41;8.00;99.90
5705;DHT22;2877;48.238;11.160;2024-03-23T03:07:07;8.10;99.90
5705;DHT22;2877;48.238;11.160;2024-03-23T03:09:32;8.10;99.90
5705;DHT22;2877;48.238;11.160;2024-03-23T03:12:01;8.20;99.90
5705;DHT22;2877;48.238;11.160;2024-03-23T03:14:27;8.10;99.90
5705;DHT22;2877;48.238;11.160;2024-03-23T03:16:53;8.10;99.90
5705;DHT22;2877;48.238;11.160;2024-03-23T03:19:19;8.10;99.90
5705;DHT22;2877;48.238;11.160;2024-03-23T03:21:44;8.10;99.90
5705;DHT22;2877;48.238;11.160;2024-03-23T03:24:10;8.20;99.90
5705;DHT22;2877;48.238;11.160;2024-03-23T03:26:36;8.20;99.90
5705;DHT22;2877;48.238;11.160;2024-03-23T03:29:02;8.10;99.90
5705;DHT22;2877;48.238;11.160;2024-03-23T03:31:28;8.10;99.90
5705;DHT22;2877;48.238;11.160;2024-03-23T03:33:53;8.10;99.90
5705;DHT22;2877;48.238;11.160;2024-03-23T03:36:19;8.10;99.90
5705;DHT22;2877;48.238;11.160;2024-03-23T03:38:45;8.20;99.90
5705;DHT22;2877;48.238;11.160;2024-03-23T03:41:11;8.20;99.90
5705;DHT22;2877;48.238;11.160;2024-03-23T03:43:36;8.20;99.90
5705;DHT22;2877;48.238;11.160;2024-03-23T03:46:02;8.30;99.90
5705;DHT22;2877;48.238;11.160;2024-03-23T03:48:28;8.50;99.90
5705;DHT22;2877;48.238;11.160;2024-03-23T03:50:54;8.70;99.90
5705;DHT22;2877;48.238;11.160;2024-03-23T03:53:20;8.70;99.90
5705;DHT22;2877;48.238;11.160;2024-03-23T03:55:45;8.70;99.90
5705;DHT22;2877;48.238;11.160;2024-03-23T03:58:11;8.70;99.90
5705;DHT22;2877;48.238;11.160;2024-03-23T04:00:36;8.70;99.90
5705;DHT22;2877;48.238;11.160;2024-03-23T04:03:02;8.80;99.90
5705;DHT22;2877;48.238;11.160;2024-03-23T04:05:28;8.90;99.90
5705;DHT22;2877;48.238;11.160;2024-03-23T04:07:54;8.90;99.90
5705;DHT22;2877;48.238;11.160;2024-03-23T04:10:20;9.00;99.90
5705;DHT22;2877;48.238;11.160;2024-03-23T04:12:47;9.10;99.90
5705;DHT22;2877;48.238;11.160;2024-03-23T04:15:13;9.30;99.90
5705;DHT22;2877;48.238;11.160;2024-03-23T04:17:39;9.40;99.90
5705;DHT22;2877;48.238;11.160;2024-03-23T04:20:05;9.40;99.90
5705;DHT22;2877;48.238;11.160;2024-03-23T04:22:34;9.40;99.90
5705;DHT22;2877;48.238;11.160;2024-03-23T04:25:00;9.50;99.90
5705;DHT22;2877;48.238;11.160;2024-03-23T04:27:28;9.50;99.90
5705;DHT22;2877;48.238;11.160;2024-03-23T04:29:54;9.50;99.90
5705;DHT22;2877;48.238;11.160;2024-03-23T04:32:19;9.60;99.90
5705;DHT22;2877;48.238;11.160;2024-03-23T04:34:45;9.60;99.90
5705;DHT22;2877;48.238;11.160;2024-03-23T04:37:11;9.70;99.90
5705;DHT22;2877;48.238;11.160;2024-03-23T04:39:37;9.70;99.90
5705;DHT22;2877;48.238;11.160;2024-03-23T04:42:03;9.70;99.90
5705;DHT22;2877;48.238;11.160;2024-03-23T04:44:29;9.80;99.90
5705;DHT22;2877;48.238;11.160;2024-03-23T04:46:56;9.80;99.90
5705;DHT22;2877;48.238;11.160;2024-03-23T04:49:22;9.90;99.90
5705;DHT22;2877;48.238;11.160;2024-03-23T04:51:47;9.80;99.90
5705;DHT22;2877;48.238;11.160;2024-03-23T04:54:13;9.80;99.90
5705;DHT22;2877;48.238;11.160;2024-03-23T04:56:38;9.90;99.90
5705;DHT22;2877;48.238;11.160;2024-03-23T04:59:04;9.90;99.90
5705;DHT22;2877;48.238;11.160;2024-03-23T05:01:31;9.90;99.90
5705;DHT22;2877;48.238;11.160;2024-03-23T05:03:57;9.90;99.90
5705;DHT22;2877;48.238;11.160;2024-03-23T05:06:23;9.90;99.90
5705;DHT22;2877;48.238;11.160;2024-03-23T05:08:49;9.80;99.90
5705;DHT22;2877;48.238;11.160;2024-03-23T05:11:14;9.70;99.90
5705;DHT22;2877;48.238;11.160;2024-03-23T05:13:41;9.60;99.90
5705;DHT22;2877;48.238;11.160;2024-03-23T05:16:06;9.60;99.90
5705;DHT22;2877;48.238;11.160;2024-03-23T05:18:32;9.60;99.90
5705;DHT22;2877;48.238;11.160;2024-03-23T05:20:58;9.70;99.90
5705;DHT22;2877;48.238;11.160;2024-03-23T05:23:28;9.80;99.90
5705;DHT22;2877;48.238;11.160;2024-03-23T05:25:55;9.80;99.90
5705;DHT22;2877;48.238;11.160;2024-03-23T05:28:21;10.00;99.90
5705;DHT22;2877;48.238;11.160;2024-03-23T05:30:51;10.00;99.90
5705;DHT22;2877;48.238;11.160;2024-03-23T05:33:18;10.00;99.90
5705;DHT22;2877;48.238;11.160;2024-03-23T05:35:43;10.10;99.90
5705;DHT22;2877;48.238;11.160;2024-03-23T05:38:09;10.10;99.90
5705;DHT22;2877;48.238;11.160;2024-03-23T05:40:34;10.20;99.90
5705;DHT22;2877;48.238;11.160;2024-03-23T05:43:03;10.30;99.90
5705;DHT22;2877;48.238;11.160;2024-03-23T05:45:29;10.30;99.90
5705;DHT22;2877;48.238;11.160;2024-03-23T05:47:54;10.40;99.90
5705;DHT22;2877;48.238;11.160;2024-03-23T05:50:22;10.50;99.90
5705;DHT22;2877;48.238;11.160;2024-03-23T05:52:48;10.50;99.90
5705;DHT22;2877;48.238;11.160;2024-03-23T05:55:14;10.50;99.90
5705;DHT22;2877;48.238;11.160;2024-03-23T05:57:39;10.60;99.90
5705;DHT22;2877;48.238;11.160;2024-03-23T06:00:06;10.60;99.90
5705;DHT22;2877;48.238;11.160;2024-03-23T06:02:36;10.60;99.90
5705;DHT22;2877;48.238;11.160;2024-03-23T06:05:02;10.60;99.90
5705;DHT22;2877;48.238;11.160;2024-03-23T06:07:28;10.70;99.90
5705;DHT22;2877;48.238;11.160;2024-03-23T06:09:53;10.80;99.90
5705;DHT22;2877;48.238;11.160;2024-03-23T06:12:19;10.80;99.90
5705;DHT22;2877;48.238;11.160;2024-03-23T06:14:46;10.90;99.90
5705;DHT22;2877;48.238;11.160;2024-03-23T06:17:13;10.90;99.90
5705;DHT22;2877;48.238;11.160;2024-03-23T06:19:39;11.00;99.90
5705;DHT22;2877;48.238;11.160;2024-03-23T06:22:04;11.10;99.90
5705;DHT22;2877;48.238;11.160;2024-03-23T06:24:32;11.20;99.90
5705;DHT22;2877;48.238;11.160;2024-03-23T06:26:57;11.30;99.90
5705;DHT22;2877;48.238;11.160;2024-03-23T06:29:23;11.40;99.90
5705;DHT22;2877;48.238;11.160;2024-03-23T06:31:54;11.60;99.90
5705;DHT22;2877;48.238;11.160;2024-03-23T06:34:20;11.80;99.90
5705;DHT22;2877;48.238;11.160;2024-03-23T06:36:47;12.00;99.90
5705;DHT22;2877;48.238;11.160;2024-03-23T06:39:12;12.30;99.90
5705;DHT22;2877;48.238;11.160;2024-03-23T06:41:51;12.50;99.90
5705;DHT22;2877;48.238;11.160;2024-03-23T06:44:16;12.70;99.90
5705;DHT22;2877;48.238;11.160;2024-03-23T06:46:42;12.80;99.90
5705;DHT22;2877;48.238;11.160;2024-03-23T06:49:08;12.90;99.90
5705;DHT22;2877;48.238;11.160;2024-03-23T06:51:34;12.90;99.90
5705;DHT22;2877;48.238;11.160;2024-03-23T06:53:59;12.80;99.90
5705;DHT22;2877;48.238;11.160;2024-03-23T06:56:25;12.80;99.90
5705;DHT22;2877;48.238;11.160;2024-03-23T06:58:50;12.80;99.90
5705;DHT22;2877;48.238;11.160;2024-03-23T07:01:16;12.80;99.90
5705;DHT22;2877;48.238;11.160;2024-03-23T07:03:41;12.80;99.90
5705;DHT22;2877;48.238;11.160;2024-03-23T07:06:09;12.70;99.90
5705;DHT22;2877;48.238;11.160;2024-03-23T07:08:36;12.30;99.90
5705;DHT22;2877;48.238;11.160;2024-03-23T07:11:01;12.00;99.90
5705;DHT22;2877;48.238;11.160;2024-03-23T07:13:28;11.80;99.90
5705;DHT22;2877;48.238;11.160;2024-03-23T07:15:54;11.60;99.90
5705;DHT22;2877;48.238;11.160;2024-03-23T07:18:21;11.50;99.90
5705;DHT22;2877;48.238;11.160;2024-03-23T07:20:56;11.30;99.90
5705;DHT22;2877;48.238;11.160;2024-03-23T07:23:22;11.30;99.90
5705;DHT22;2877;48.238;11.160;2024-03-23T07:26:02;11.20;99.90
5705;DHT22;2877;48.238;11.160;2024-03-23T07:28:29;11.00;99.90
5705;DHT22;2877;48.238;11.160;2024-03-23T07:31:13;10.80;99.90
5705;DHT22;2877;48.238;11.160;2024-03-23T07:33:45;10.60;99.90
5705;DHT22;2877;48.238;11.160;2024-03-23T07:36:12;10.50;99.90
5705;DHT22;2877;48.238;11.160;2024-03-23T07:38:39;10.50;99.90
5705;DHT22;2877;48.238;11.160;2024-03-23T07:41:10;10.40;99.90
5705;DHT22;2877;48.238;11.160;2024-03-23T07:43:37;10.40;99.90
5705;DHT22;2877;48.238;11.160;2024-03-23T07:46:03;10.40;99.90
5705;DHT22;2877;48.238;11.160;2024-03-23T07:48:32;10.40;99.90
5705;DHT22;2877;48.238;11.160;2024-03-23T07:51:12;10.30;99.90
5705;DHT22;2877;48.238;11.160;2024-03-23T07:53:38;10.20;99.90
5705;DHT22;2877;48.238;11.160;2024-03-23T07:56:09;10.10;99.90
5705;DHT22;2877;48.238;11.160;2024-03-23T07:58:36;10.00;99.90
5705;DHT22;2877;48.238;11.160;2024-03-23T08:01:12;9.30;99.90
5705;DHT22;2877;48.238;11.160;2024-03-23T08:03:39;8.60;99.90
5705;DHT22;2877;48.238;11.160;2024-03-23T08:08:41;8.20;99.90
5705;DHT22;2877;48.238;11.160;2024-03-23T08:11:07;8.10;99.90
5705;DHT22;2877;48.238;11.160;2024-03-23T08:13:34;8.10;99.90
5705;DHT22;2877;48.238;11.160;2024-03-23T08:16:01;8.00;99.90
5705;DHT22;2877;48.238;11.160;2024-03-23T08:18:27;8.00;99.90
5705;DHT22;2877;48.238;11.160;2024-03-23T08:20:59;8.00;99.90
5705;DHT22;2877;48.238;11.160;2024-03-23T08:23:29;8.00;99.90
5705;DHT22;2877;48.238;11.160;2024-03-23T08:25:59;8.00;99.90
5705;DHT22;2877;48.238;11.160;2024-03-23T08:28:25;8.00;99.90
5705;DHT22;2877;48.238;11.160;2024-03-23T08:30:55;8.00;99.90
5705;DHT22;2877;48.238;11.160;2024-03-23T08:33:21;8.00;99.90
5705;DHT22;2877;48.238;11.160;2024-03-23T08:35:58;8.00;99.90
5705;DHT22;2877;48.238;11.160;2024-03-23T08:38:24;8.00;99.90
5705;DHT22;2877;48.238;11.160;2024-03-23T08:41:09;8.00;99.90
5705;DHT22;2877;48.238;11.160;2024-03-23T08:43:40;7.90;99.90
5705;DHT22;2877;48.238;11.160;2024-03-23T08:46:10;8.00;99.90
5705;DHT22;2877;48.238;11.160;2024-03-23T08:48:41;7.90;99.90
5705;DHT22;2877;48.238;11.160;2024-03-23T08:51:10;8.00;99.90
5705;DHT22;2877;48.238;11.160;2024-03-23T08:53:36;7.90;99.90
5705;DHT22;2877;48.238;11.160;2024-03-23T08:56:02;7.90;99.90
5705;DHT22;2877;48.238;11.160;2024-03-23T08:58:29;7.90;99.90
5705;DHT22;2877;48.238;11.160;2024-03-23T09:00:56;7.90;99.90
5705;DHT22;2877;48.238;11.160;2024-03-23T09:03:22;7.90;99.90
5705;DHT22;2877;48.238;11.160;2024-03-23T09:05:48;7.90;99.90
5705;DHT22;2877;48.238;11.160;2024-03-23T09:08:14;8.00;99.90
5705;DHT22;2877;48.238;11.160;2024-03-23T09:10:40;8.00;99.90
5705;DHT22;2877;48.238;11.160;2024-03-23T09:13:06;7.90;99.90
5705;DHT22;2877;48.238;11.160;2024-03-23T09:15:36;7.90;99.90
5705;DHT22;2877;48.238;11.160;2024-03-23T09:18:03;7.80;99.90
5705;DHT22;2877;48.238;11.160;2024-03-23T09:20:28;7.90;99.90
5705;DHT22;2877;48.238;11.160;2024-03-23T09:22:54;7.90;99.90
5705;DHT22;2877;48.238;11.160;2024-03-23T09:25:20;7.80;99.90
5705;DHT22;2877;48.238;11.160;2024-03-23T09:27:48;7.80;99.90
5705;DHT22;2877;48.238;11.160;2024-03-23T09:30:14;7.80;99.90
5705;DHT22;2877;48.238;11.160;2024-03-23T09:32:43;7.70;99.90
5705;DHT22;2877;48.238;11.160;2024-03-23T09:35:08;7.70;99.90
5705;DHT22;2877;48.238;11.160;2024-03-23T09:37:34;7.70;99.90
5705;DHT22;2877;48.238;11.160;2024-03-23T09:39:59;7.70;99.90
5705;DHT22;2877;48.238;11.160;2024-03-23T09:42:25;7.70;99.90
5705;DHT22;2877;48.238;11.160;2024-03-23T09:44:51;7.70;99.90
5705;DHT22;2877;48.238;11.160;2024-03-23T09:47:17;7.60;99.90
5705;DHT22;2877;48.238;11.160;2024-03-23T09:49:43;7.60;99.90
5705;DHT22;2877;48.238;11.160;2024-03-23T09:52:09;7.60;99.90
5705;DHT22;2877;48.238;11.160;2024-03-23T09:54:35;7.50;99.90
5705;DHT22;2877;48.238;11.160;2024-03-23T09:57:00;7.50;99.90
5705;DHT22;2877;48.238;11.160;2024-03-23T09:59:26;7.40;99.90
5705;DHT22;2877;48.238;11.160;2024-03-23T10:01:53;7.40;99.90
5705;DHT22;2877;48.238;11.160;2024-03-23T10:04:38;7.30;99.90
5705;DHT22;2877;48.238;11.160;2024-03-23T10:07:18;7.30;99.90
5705;DHT22;2877;48.238;11.160;2024-03-23T10:09:45;7.30;99.90
5705;DHT22;2877;48.238;11.160;2024-03-23T10:12:12;7.30;99.90
5705;DHT22;2877;48.238;11.160;2024-03-23T10:14:39;7.30;99.90
5705;DHT22;2877;48.238;11.160;2024-03-23T10:17:18;7.40;99.90
5705;DHT22;2877;48.238;11.160;2024-03-23T10:19:49;7.40;99.90
5705;DHT22;2877;48.238;11.160;2024-03-23T10:22:20;7.50;99.90
5705;DHT22;2877;48.238;11.160;2024-03-23T10:24:46;7.40;99.90
5705;DHT22;2877;48.238;11.160;2024-03-23T10:27:19;7.20;99.90
5705;DHT22;2877;48.238;11.160;2024-03-23T10:29:46;7.10;99.90
5705;DHT22;2877;48.238;11.160;2024-03-23T10:32:13;7.10;99.90
5705;DHT22;2877;48.238;11.160;2024-03-23T10:34:39;7.20;99.90
5705;DHT22;2877;48.238;11.160;2024-03-23T10:37:05;7.30;99.90
5705;DHT22;2877;48.238;11.160;2024-03-23T10:39:39;7.40;99.90
5705;DHT22;2877;48.238;11.160;2024-03-23T10:42:09;7.50;99.90
5705;DHT22;2877;48.238;11.160;2024-03-23T10:44:37;7.50;99.90
5705;DHT22;2877;48.238;11.160;2024-03-23T10:47:04;7.60;99.90
5705;DHT22;2877;48.238;11.160;2024-03-23T10:49:34;7.70;99.90
5705;DHT22;2877;48.238;11.160;2024-03-23T10:54:27;7.60;99.90
5705;DHT22;2877;48.238;11.160;2024-03-23T10:57:14;7.50;99.90
5705;DHT22;2877;48.238;11.160;2024-03-23T10:59:42;7.50;99.90
5705;DHT22;2877;48.238;11.160;2024-03-23T11:02:19;7.40;99.90
5705;DHT22;2877;48.238;11.160;2024-03-23T11:04:44;7.40;99.90
5705;DHT22;2877;48.238;11.160;2024-03-23T11:09:53;7.40;99.90
5705;DHT22;2877;48.238;11.160;2024-03-23T11:15:05;7.40;99.90
5705;DHT22;2877;48.238;11.160;2024-03-23T11:17:31;7.50;99.90
5705;DHT22;2877;48.238;11.160;2024-03-23T11:19:58;7.60;99.90
5705;DHT22;2877;48.238;11.160;2024-03-23T11:25:22;8.00;99.90
5705;DHT22;2877;48.238;11.160;2024-03-23T11:27:52;8.10;99.90
5705;DHT22;2877;48.238;11.160;2024-03-23T11:30:23;8.20;99.90
5705;DHT22;2877;48.238;11.160;2024-03-23T11:32:50;8.20;99.90
5705;DHT22;2877;48.238;11.160;2024-03-23T11:35:32;8.20;99.90
5705;DHT22;2877;48.238;11.160;2024-03-23T11:38:15;8.10;99.90
5705;DHT22;2877;48.238;11.160;2024-03-23T11:40:45;8.10;99.90
5705;DHT22;2877;48.238;11.160;2024-03-23T11:43:15;8.10;99.90
5705;DHT22;2877;48.238;11.160;2024-03-23T11:45:46;8.00;99.90
5705;DHT22;2877;48.238;11.160;2024-03-23T11:50:43;8.10;99.90
5705;DHT22;2877;48.238;11.160;2024-03-23T11:53:23;8.20;99.90
5705;DHT22;2877;48.238;11.160;2024-03-23T11:55:53;8.10;99.90
5705;DHT22;2877;48.238;11.160;2024-03-23T11:58:21;8.00;99.90
5705;DHT22;2877;48.238;11.160;2024-03-23T12:01:00;8.00;99.90
5705;DHT22;2877;48.238;11.160;2024-03-23T12:03:27;8.00;99.90
5705;DHT22;2877;48.238;11.160;2024-03-23T12:06:01;8.00;99.90
5705;DHT22;2877;48.238;11.160;2024-03-23T12:08:31;8.10;99.90
5705;DHT22;2877;48.238;11.160;2024-03-23T12:13:33;8.20;99.90
5705;DHT22;2877;48.238;11.160;2024-03-23T12:16:19;8.30;99.90
5705;DHT22;2877;48.238;11.160;2024-03-23T12:18:49;8.30;99.90
5705;DHT22;2877;48.238;11.160;2024-03-23T12:21:16;8.30;99.90
5705;DHT22;2877;48.238;11.160;2024-03-23T12:23:43;8.30;99.90
5705;DHT22;2877;48.238;11.160;2024-03-23T12:26:10;8.30;99.90
5705;DHT22;2877;48.238;11.160;2024-03-23T12:28:36;8.20;99.90
5705;DHT22;2877;48.238;11.160;2024-03-23T12:31:02;8.20;99.90
5705;DHT22;2877;48.238;11.160;2024-03-23T12:33:28;8.30;99.90
5705;DHT22;2877;48.238;11.160;2024-03-23T12:35:54;8.40;99.90
5705;DHT22;2877;48.238;11.160;2024-03-23T12:38:19;8.40;99.90
5705;DHT22;2877;48.238;11.160;2024-03-23T12:40:51;8.30;99.90
5705;DHT22;2877;48.238;11.160;2024-03-23T12:43:17;8.40;99.90
5705;DHT22;2877;48.238;11.160;2024-03-23T12:45:47;8.30;99.90
5705;DHT22;2877;48.238;11.160;2024-03-23T12:48:12;8.20;99.90
5705;DHT22;2877;48.238;11.160;2024-03-23T12:50:38;8.10;99.90
5705;DHT22;2877;48.238;11.160;2024-03-23T12:53:03;8.00;99.90
5705;DHT22;2877;48.238;11.160;2024-03-23T12:55:29;8.00;99.90
5705;DHT22;2877;48.238;11.160;2024-03-23T12:57:54;8.00;99.90
5705;DHT22;2877;48.238;11.160;2024-03-23T13:00:20;8.00;99.90
5705;DHT22;2877;48.238;11.160;2024-03-23T13:02:45;8.00;99.90
5705;DHT22;2877;48.238;11.160;2024-03-23T13:05:11;8.00;99.90
5705;DHT22;2877;48.238;11.160;2024-03-23T13:07:37;8.00;99.90
5705;DHT22;2877;48.238;11.160;2024-03-23T13:10:04;8.00;99.90
5705;DHT22;2877;48.238;11.160;2024-03-23T13:12:31;8.10;99.90
5705;DHT22;2877;48.238;11.160;2024-03-23T13:14:56;8.10;99.90
5705;DHT22;2877;48.238;11.160;2024-03-23T13:17:22;8.10;99.90
5705;DHT22;2877;48.238;11.160;2024-03-23T13:19:47;8.10;99.90
5705;DHT22;2877;48.238;11.160;2024-03-23T13:22:13;8.00;99.90
5705;DHT22;2877;48.238;11.160;2024-03-23T13:24:39;7.90;99.90
5705;DHT22;2877;48.238;11.160;2024-03-23T13:27:04;7.50;99.90
5705;DHT22;2877;48.238;11.160;2024-03-23T13:29:33;7.20;99.90
5705;DHT22;2877;48.238;11.160;2024-03-23T13:31:59;6.70;99.90
5705;DHT22;2877;48.238;11.160;2024-03-23T13:34:25;6.00;99.90
5705;DHT22;2877;48.238;11.160;2024-03-23T13:36:50;5.90;99.90
5705;DHT22;2877;48.238;11.160;2024-03-23T13:39:16;6.00;99.90
5705;DHT22;2877;48.238;11.160;2024-03-23T13:41:45;6.20;99.90
5705;DHT22;2877;48.238;11.160;2024-03-23T13:44:12;6.30;99.90
5705;DHT22;2877;48.238;11.160;2024-03-23T13:46:39;6.40;99.90
5705;DHT22;2877;48.238;11.160;2024-03-23T13:49:06;6.50;99.90
5705;DHT22;2877;48.238;11.160;2024-03-23T13:51:32;6.60;99.90
5705;DHT22;2877;48.238;11.160;2024-03-23T13:53:58;6.70;99.90
5705;DHT22;2877;48.238;11.160;2024-03-23T13:56:28;6.80;99.90
5705;DHT22;2877;48.238;11.160;2024-03-23T13:58:57;6.80;99.90
5705;DHT22;2877;48.238;11.160;2024-03-23T14:01:23;6.90;99.90
5705;DHT22;2877;48.238;11.160;2024-03-23T14:03:49;7.00;99.90
5705;DHT22;2877;48.238;11.160;2024-03-23T14:06:15;6.90;99.90
5705;DHT22;2877;48.238;11.160;2024-03-23T14:08:41;6.90;99.90
5705;DHT22;2877;48.238;11.160;2024-03-23T14:11:07;6.80;99.90
5705;DHT22;2877;48.238;11.160;2024-03-23T14:13:34;6.80;99.90
5705;DHT22;2877;48.238;11.160;2024-03-23T14:16:00;6.80;99.90
5705;DHT22;2877;48.238;11.160;2024-03-23T14:18:26;6.80;99.90
5705;DHT22;2877;48.238;11.160;2024-03-23T14:20:52;6.80;99.90
5705;DHT22;2877;48.238;11.160;2024-03-23T14:23:19;6.80;99.90
5705;DHT22;2877;48.238;11.160;2024-03-23T14:25:44;6.80;99.90
5705;DHT22;2877;48.238;11.160;2024-03-23T14:28:10;6.80;99.90
5705;DHT22;2877;48.238;11.160;2024-03-23T14:30:43;6.80;99.90
5705;DHT22;2877;48.238;11.160;2024-03-23T14:33:09;6.70;99.90
5705;DHT22;2877;48.238;11.160;2024-03-23T14:35:35;6.70;99.90
5705;DHT22;2877;48.238;11.160;2024-03-23T14:38:00;6.70;99.90
5705;DHT22;2877;48.238;11.160;2024-03-23T14:40:26;6.70;99.90
5705;DHT22;2877;48.238;11.160;2024-03-23T14:42:54;6.70;99.90
5705;DHT22;2877;48.238;11.160;2024-03-23T14:45:23;6.70;99.90
5705;DHT22;2877;48.238;11.160;2024-03-23T14:47:50;6.60;99.90
5705;DHT22;2877;48.238;11.160;2024-03-23T14:50:15;6.60;99.90
5705;DHT22;2877;48.238;11.160;2024-03-23T14:52:45;6.60;99.90
5705;DHT22;2877;48.238;11.160;2024-03-23T14:55:11;6.60;99.90
5705;DHT22;2877;48.238;11.160;2024-03-23T14:57:37;6.60;99.90
5705;DHT22;2877;48.238;11.160;2024-03-23T15:00:07;6.60;99.90
5705;DHT22;2877;48.238;11.160;2024-03-23T15:02:33;6.70;99.90
5705;DHT22;2877;48.238;11.160;2024-03-23T15:05:00;6.90;99.90
5705;DHT22;2877;48.238;11.160;2024-03-23T15:07:25;7.00;99.90
5705;DHT22;2877;48.238;11.160;2024-03-23T15:09:51;7.00;99.90
5705;DHT22;2877;48.238;11.160;2024-03-23T15:12:16;6.90;99.90
5705;DHT22;2877;48.238;11.160;2024-03-23T15:14:42;6.90;99.90
5705;DHT22;2877;48.238;11.160;2024-03-23T15:17:07;7.00;99.90
5705;DHT22;2877;48.238;11.160;2024-03-23T15:19:34;7.00;99.90
5705;DHT22;2877;48.238;11.160;2024-03-23T15:22:00;7.10;99.90
5705;DHT22;2877;48.238;11.160;2024-03-23T15:24:25;7.20;99.90
5705;DHT22;2877;48.238;11.160;2024-03-23T15:26:51;7.40;99.90
5705;DHT22;2877;48.238;11.160;2024-03-23T15:29:17;7.70;99.90
5705;DHT22;2877;48.238;11.160;2024-03-23T15:31:43;7.90;99.90
5705;DHT22;2877;48.238;11.160;2024-03-23T15:34:10;8.30;99.90
5705;DHT22;2877;48.238;11.160;2024-03-23T15:36:37;8.40;99.90
5705;DHT22;2877;48.238;11.160;2024-03-23T15:39:04;8.30;99.90
5705;DHT22;2877;48.238;11.160;2024-03-23T15:41:30;8.20;99.90
5705;DHT22;2877;48.238;11.160;2024-03-23T15:43:56;8.20;99.90
5705;DHT22;2877;48.238;11.160;2024-03-23T15:46:21;8.30;99.90
5705;DHT22;2877;48.238;11.160;2024-03-23T15:48:47;8.20;99.90
5705;DHT22;2877;48.238;11.160;2024-03-23T15:51:14;7.90;99.90
5705;DHT22;2877;48.238;11.160;2024-03-23T15:53:39;7.70;99.90
5705;DHT22;2877;48.238;11.160;2024-03-23T15:56:05;7.50;99.90
5705;DHT22;2877;48.238;11.160;2024-03-23T15:58:32;7.30;99.90
5705;DHT22;2877;48.238;11.160;2024-03-23T16:00:58;7.10;99.90
5705;DHT22;2877;48.238;11.160;2024-03-23T16:03:24;7.10;99.90
5705;DHT22;2877;48.238;11.160;2024-03-23T16:05:59;7.00;99.90
5705;DHT22;2877;48.238;11.160;2024-03-23T16:08:25;7.00;99.90
5705;DHT22;2877;48.238;11.160;2024-03-23T16:10:51;7.00;99.90
5705;DHT22;2877;48.238;11.160;2024-03-23T16:13:17;6.90;99.90
5705;DHT22;2877;48.238;11.160;2024-03-23T16:15:56;6.90;99.90
5705;DHT22;2877;48.238;11.160;2024-03-23T16:18:22;6.90;99.90
5705;DHT22;2877;48.238;11.160;2024-03-23T16:20:59;7.00;99.90
5705;DHT22;2877;48.238;11.160;2024-03-23T16:23:25;7.10;99.90
5705;DHT22;2877;48.238;11.160;2024-03-23T16:25:52;7.00;99.90
5705;DHT22;2877;48.238;11.160;2024-03-23T16:28:25;7.00;99.90
5705;DHT22;2877;48.238;11.160;2024-03-23T16:31:01;6.90;99.90
5705;DHT22;2877;48.238;11.160;2024-03-23T16:33:27;6.90;99.90
5705;DHT22;2877;48.238;11.160;2024-03-23T16:38:23;6.90;99.90
5705;DHT22;2877;48.238;11.160;2024-03-23T16:40:55;6.90;99.90
5705;DHT22;2877;48.238;11.160;2024-03-23T16:43:21;6.80;99.90
5705;DHT22;2877;48.238;11.160;2024-03-23T16:48:26;6.70;99.90
5705;DHT22;2877;48.238;11.160;2024-03-23T16:50:53;6.70;99.90
5705;DHT22;2877;48.238;11.160;2024-03-23T16:53:19;6.70;99.90
5705;DHT22;2877;48.238;11.160;2024-03-23T16:55:45;6.70;99.90
5705;DHT22;2877;48.238;11.160;2024-03-23T16:58:11;6.70;99.90
5705;DHT22;2877;48.238;11.160;2024-03-23T17:00:37;6.60;99.90
5705;DHT22;2877;48.238;11.160;2024-03-23T17:03:03;6.60;99.90
5705;DHT22;2877;48.238;11.160;2024-03-23T17:05:28;6.70;99.90
5705;DHT22;2877;48.238;11.160;2024-03-23T17:07:54;6.70;99.90
5705;DHT22;2877;48.238;11.160;2024-03-23T17:10:22;6.60;99.90
5705;DHT22;2877;48.238;11.160;2024-03-23T17:12:48;6.60;99.90
5705;DHT22;2877;48.238;11.160;2024-03-23T17:15:13;6.30;99.90
5705;DHT22;2877;48.238;11.160;2024-03-23T17:17:40;5.80;99.90